Time;durP1;ratioP1;P1;durP2;ratioP2;P2;SDS_P1;SDS_P2;PMS_P1;PMS_P2;Temp;Humidity;BMP_temperature;BMP_pressure;BME280_temperature;BME280_humidity;BME280_pressure;Samples;Min_cycle;Max_cycle;Signal;HPM_P1;HPM_P2
2022/02/15 00:01:31;;;;;;;;;;;;;;;2.01;73.89;100476.47;5092491;28;19915;-62
2022/02/15 00:03:56;;;;;;;;;;;;;;;2.05;73.81;100480.56;5092348;28;19916;-62
2022/02/15 00:06:22;;;;;;;;;;;;;;;2.05;72.72;100483.19;5092190;28;19916;-60
2022/02/15 00:08:47;;;;;;;;;;;;;;;2.08;72.57;100487.38;5092271;28;19924;-61
2022/02/15 00:11:13;;;;;;;;;;;;;;;2.10;73.30;100482.84;5092042;28;19916;-59
2022/02/15 00:13:38;;;;;;;;;;;;;;;2.10;72.88;100494.19;5091957;28;19961;-62
2022/02/15 00:16:03;;;;;;;;;;;;;;;2.14;73.13;100494.78;5074141;28;19916;-61
2022/02/15 00:18:29;;;;;;;;;;;;;;;2.10;71.88;100493.34;5092212;28;19927;-61
2022/02/15 00:20:54;;;;;;;;;;;;;;;2.12;72.82;100481.78;5074058;28;20267;-61
2022/02/15 00:23:20;;;;;;;;;;;;;;;2.12;71.97;100489.66;5092040;28;19923;-61
2022/02/15 00:25:46;;;;;;;;;;;;;;;2.10;72.08;100483.69;5092174;28;20364;-61
2022/02/15 00:28:11;;;;;;;;;;;;;;;2.10;72.07;100477.59;5092493;28;20271;-61
2022/02/15 00:30:36;;;;;;;;;;;;;;;2.09;72.34;100492.50;5092746;28;19916;-63
2022/02/15 00:33:02;;;;;;;;;;;;;;;2.11;72.31;100484.50;5092546;28;19923;-61
2022/02/15 00:35:27;;;;;;;;;;;;;;;2.13;72.66;100488.69;5092391;28;19916;-60
2022/02/15 00:37:53;;;;;;;;;;;;;;;2.20;72.27;100482.97;5091977;28;20071;-59
2022/02/15 00:40:18;;;;;;;;;;;;;;;2.23;72.08;100491.47;5092162;28;20291;-58
2022/02/15 00:42:47;;;;;;;;;;;;;;;2.25;72.51;100483.47;5091942;28;20283;-62
2022/02/15 00:45:13;;;;;;;;;;;;;;;2.31;72.04;100477.72;5092036;28;19920;-59
2022/02/15 00:47:38;;;;;;;;;;;;;;;2.31;71.55;100480.34;5092049;28;20437;-61
2022/02/15 00:50:04;;;;;;;;;;;;;;;2.28;71.36;100476.19;5073989;28;20341;-60
2022/02/15 00:52:29;;;;;;;;;;;;;;;2.30;71.90;100483.94;5092077;28;20334;-61
2022/02/15 00:54:55;;;;;;;;;;;;;;;2.32;71.39;100487.31;5092064;28;20275;-61
2022/02/15 00:57:22;;;;;;;;;;;;;;;2.31;70.68;100486.44;5091898;28;19969;-60
2022/02/15 00:59:47;;;;;;;;;;;;;;;2.32;70.67;100487.31;5091920;28;19922;-59
2022/02/15 01:02:13;;;;;;;;;;;;;;;2.34;70.40;100488.03;5091974;28;19916;-60
2022/02/15 01:04:38;;;;;;;;;;;;;;;2.33;70.50;100491.63;5091901;28;20299;-61
2022/02/15 01:07:04;;;;;;;;;;;;;;;2.33;70.62;100489.81;5073684;28;20346;-60
2022/02/15 01:09:29;;;;;;;;;;;;;;;2.37;70.20;100490.44;5091994;28;19927;-61
2022/02/15 01:11:55;;;;;;;;;;;;;;;2.35;70.66;100494.97;5091787;28;20424;-62
2022/02/15 01:14:20;;;;;;;;;;;;;;;2.34;70.08;100495.91;5091826;28;19916;-60
2022/02/15 01:16:45;;;;;;;;;;;;;;;2.37;70.53;100491.25;5073491;28;20015;-61
2022/02/15 01:19:11;;;;;;;;;;;;;;;2.35;70.27;100492.34;5091599;28;20447;-61
2022/02/15 01:21:36;;;;;;;;;;;;;;;2.32;70.67;100490.78;5091925;28;19977;-59
2022/02/15 01:24:02;;;;;;;;;;;;;;;2.34;70.26;100490.66;5073590;28;20279;-61
2022/02/15 01:26:27;;;;;;;;;;;;;;;2.32;70.80;100492.56;5095287;28;19916;-61
2022/02/15 01:28:52;;;;;;;;;;;;;;;2.29;69.84;100488.34;5095735;28;19916;-60
2022/02/15 01:31:18;;;;;;;;;;;;;;;2.34;70.83;100495.91;5095475;28;19916;-61
2022/02/15 01:33:43;;;;;;;;;;;;;;;2.37;70.03;100498.31;5095586;28;19982;-60
2022/02/15 01:36:09;;;;;;;;;;;;;;;2.36;69.84;100491.38;5095342;28;20306;-60
2022/02/15 01:38:34;;;;;;;;;;;;;;;2.39;70.43;100504.28;5095121;28;19962;-61
2022/02/15 01:41:01;;;;;;;;;;;;;;;2.37;69.67;100506.19;5077007;28;20018;-60
2022/02/15 01:43:28;;;;;;;;;;;;;;;2.34;69.92;100511.69;5095278;28;19928;-62
2022/02/15 01:45:53;;;;;;;;;;;;;;;2.30;70.81;100505.81;5076981;28;20390;-62
2022/02/15 01:48:19;;;;;;;;;;;;;;;2.24;70.62;100515.94;5095511;28;19951;-61
2022/02/15 01:50:47;;;;;;;;;;;;;;;2.18;71.14;100510.19;5095059;28;20307;-61
2022/02/15 01:53:13;;;;;;;;;;;;;;;2.22;71.84;100518.69;5095213;28;19916;-61
2022/02/15 01:55:38;;;;;;;;;;;;;;;2.21;71.51;100505.66;5077197;28;19968;-60
2022/02/15 01:58:04;;;;;;;;;;;;;;;2.23;71.63;100516.91;5094972;28;20375;-60
2022/02/15 02:00:30;;;;;;;;;;;;;;;2.14;71.91;100524.53;5095076;28;19920;-61
2022/02/15 02:02:55;;;;;;;;;;;;;;;2.14;71.98;100514.00;5094855;28;19923;-61
2022/02/15 02:08:04;;;;;;;;;;;;;;;2.10;71.60;100512.56;5094941;28;19916;-62
2022/02/15 02:10:30;;;;;;;;;;;;;;;2.16;71.59;100519.16;5094619;28;19938;-60
2022/02/15 02:12:55;;;;;;;;;;;;;;;2.21;71.05;100516.19;5094649;28;19919;-61
2022/02/15 02:15:22;;;;;;;;;;;;;;;2.24;71.35;100510.69;5076436;28;19920;-59
2022/02/15 02:17:48;;;;;;;;;;;;;;;2.25;71.33;100512.34;5094386;28;19920;-60
2022/02/15 02:20:13;;;;;;;;;;;;;;;2.27;71.49;100515.72;5076095;28;20428;-61
2022/02/15 02:22:39;;;;;;;;;;;;;;;2.29;71.75;100519.06;5094538;28;19915;-61
2022/02/15 02:25:05;;;;;;;;;;;;;;;2.31;71.87;100517.16;5094374;28;19969;-62
2022/02/15 02:27:31;;;;;;;;;;;;;;;2.27;71.32;100505.19;5076020;28;20387;-61
2022/02/15 02:29:57;;;;;;;;;;;;;;;2.27;71.72;100510.44;5094247;28;19977;-61
2022/02/15 02:32:29;;;;;;;;;;;;;;;2.31;71.84;100511.91;5094561;28;20382;-61
2022/02/15 02:34:55;;;;;;;;;;;;;;;2.35;71.90;100505.47;5094099;28;19916;-61
2022/02/15 02:37:21;;;;;;;;;;;;;;;2.37;71.81;100516.72;5094146;28;20336;-61
2022/02/15 02:39:47;;;;;;;;;;;;;;;2.34;70.97;100527.47;5094037;28;19916;-60
2022/02/15 02:42:13;;;;;;;;;;;;;;;2.34;71.05;100522.19;5059306;28;20252;-60
2022/02/15 02:45:04;;;;;;;;;;;;;;;2.36;70.94;100520.28;5094110;28;20391;-60
2022/02/15 02:47:30;;;;;;;;;;;;;;;2.38;70.47;100515.75;5094341;28;20259;-61
2022/02/15 02:49:55;;;;;;;;;;;;;;;2.39;70.57;100522.69;5094308;28;19927;-61
2022/02/15 02:52:21;;;;;;;;;;;;;;;2.40;69.37;100521.72;5093900;28;20381;-60
2022/02/15 02:54:47;;;;;;;;;;;;;;;2.43;69.45;100521.50;5093851;28;19937;-59
2022/02/15 02:57:13;;;;;;;;;;;;;;;2.46;69.55;100523.88;5093489;28;20006;-60
2022/02/15 02:59:42;;;;;;;;;;;;;;;2.47;68.93;100520.31;5093712;28;19916;-61
2022/02/15 03:02:07;;;;;;;;;;;;;;;2.47;68.73;100529.03;5094017;28;19923;-60
2022/02/15 03:04:33;;;;;;;;;;;;;;;2.46;68.56;100527.34;5093949;28;20294;-62
2022/02/15 03:06:59;;;;;;;;;;;;;;;2.48;68.87;100545.63;5093608;28;19962;-60
2022/02/15 03:09:24;;;;;;;;;;;;;;;2.46;67.97;100531.78;5093828;28;19916;-61
2022/02/15 03:11:51;;;;;;;;;;;;;;;2.50;68.63;100533.22;5093579;28;19920;-60
2022/02/15 03:14:16;;;;;;;;;;;;;;;2.54;69.25;100539.91;5093565;28;19915;-61
2022/02/15 03:16:42;;;;;;;;;;;;;;;2.52;68.78;100539.19;5093666;28;19962;-60
2022/02/15 03:19:07;;;;;;;;;;;;;;;2.54;68.72;100539.06;5093396;28;19946;-60
2022/02/15 03:21:32;;;;;;;;;;;;;;;2.54;68.04;100537.28;5093734;28;19916;-60
2022/02/15 03:23:58;;;;;;;;;;;;;;;2.52;68.03;100536.56;5093467;28;19922;-60
2022/02/15 03:26:48;;;;;;;;;;;;;;;2.58;68.07;100551.88;5093308;28;19972;-62
2022/02/15 03:29:13;;;;;;;;;;;;;;;2.53;68.09;100559.25;5093224;28;19920;-60
2022/02/15 03:31:40;;;;;;;;;;;;;;;2.53;68.63;100556.63;5093144;28;19924;-61
2022/02/15 03:34:05;;;;;;;;;;;;;;;2.47;67.55;100560.56;5092870;28;19915;-59
2022/02/15 03:36:31;;;;;;;;;;;;;;;2.50;68.01;100551.63;5093079;28;19927;-62
2022/02/15 03:38:56;;;;;;;;;;;;;;;2.50;68.08;100551.63;5092834;28;20060;-62
2022/02/15 03:44:08;;;;;;;;;;;;;;;2.49;68.25;100549.94;5093182;28;20048;-60
2022/02/15 03:46:33;;;;;;;;;;;;;;;2.49;67.96;100552.56;5074768;28;20344;-61
2022/02/15 03:48:59;;;;;;;;;;;;;;;2.50;67.88;100559.50;5092172;28;20030;-61
2022/02/15 03:51:24;;;;;;;;;;;;;;;2.53;68.08;100548.75;5092782;28;20551;-61
2022/02/15 03:53:49;;;;;;;;;;;;;;;2.53;68.57;100556.63;5092951;28;19920;-61
2022/02/15 03:56:15;;;;;;;;;;;;;;;2.50;67.61;100554.25;5092771;28;19915;-61
2022/02/15 03:58:40;;;;;;;;;;;;;;;2.47;67.76;100559.72;5092645;28;19916;-60
2022/02/15 04:01:06;;;;;;;;;;;;;;;2.50;68.48;100564.75;5092663;28;19985;-62
2022/02/15 04:03:32;;;;;;;;;;;;;;;2.47;67.82;100563.19;5074575;28;19916;-61
2022/02/15 04:05:57;;;;;;;;;;;;;;;2.51;68.21;100562.97;5092419;28;20065;-61
2022/02/15 04:08:23;;;;;;;;;;;;;;;2.51;68.30;100576.94;5092235;28;19923;-60
2022/02/15 04:10:49;;;;;;;;;;;;;;;2.49;67.89;100579.69;5092573;28;19916;-62
2022/02/15 04:13:15;;;;;;;;;;;;;;;2.47;67.75;100580.75;5074704;28;19929;-59
2022/02/15 04:15:40;;;;;;;;;;;;;;;2.48;67.83;100583.28;5092499;28;19920;-61
2022/02/15 04:18:06;;;;;;;;;;;;;;;2.48;68.08;100571.91;5092360;28;20375;-61
2022/02/15 04:20:31;;;;;;;;;;;;;;;2.52;68.12;100581.25;5092425;28;19920;-61
2022/02/15 04:22:56;;;;;;;;;;;;;;;2.51;68.11;100576.94;5092054;28;20370;-62
2022/02/15 04:25:22;;;;;;;;;;;;;;;2.53;68.63;100584.72;5092372;28;19916;-63
2022/02/15 04:27:48;;;;;;;;;;;;;;;2.48;68.52;100583.28;5092637;28;19930;-63
2022/02/15 04:30:13;;;;;;;;;;;;;;;2.46;68.23;100579.09;5092121;28;19923;-60
2022/02/15 04:32:38;;;;;;;;;;;;;;;2.48;68.02;100579.81;5092267;28;20020;-62
2022/02/15 04:35:04;;;;;;;;;;;;;;;2.51;68.29;100570.84;5092219;28;19916;-61
2022/02/15 04:37:29;;;;;;;;;;;;;;;2.46;67.67;100582.56;5092484;28;20350;-63
2022/02/15 04:39:55;;;;;;;;;;;;;;;2.49;67.95;100584.94;5092525;28;19916;-62
2022/02/15 04:42:21;;;;;;;;;;;;;;;2.50;68.00;100591.03;5092509;28;20011;-62
2022/02/15 04:44:46;;;;;;;;;;;;;;;2.48;68.01;100590.31;5092077;28;19921;-61
2022/02/15 04:47:11;;;;;;;;;;;;;;;2.47;67.66;100593.91;5092358;28;20433;-61
2022/02/15 04:49:37;;;;;;;;;;;;;;;2.47;67.60;100591.28;5091962;28;20394;-62
2022/02/15 04:52:02;;;;;;;;;;;;;;;2.51;67.98;100586.63;5091813;28;20330;-61
2022/02/15 04:54:27;;;;;;;;;;;;;;;2.51;68.15;100584.00;5074083;28;19922;-60
2022/02/15 04:56:53;;;;;;;;;;;;;;;2.49;67.90;100589.38;5092138;28;19973;-61
2022/02/15 04:59:19;;;;;;;;;;;;;;;2.50;67.90;100580.53;5093767;28;19916;-62
2022/02/15 05:01:44;;;;;;;;;;;;;;;2.48;68.07;100578.00;5095664;28;19916;-61
2022/02/15 05:06:53;;;;;;;;;;;;;;;2.48;67.25;100566.66;5095584;28;19916;-62
2022/02/15 05:09:19;;;;;;;;;;;;;;;2.45;68.01;100574.78;5095662;28;20482;-61
2022/02/15 05:11:44;;;;;;;;;;;;;;;2.46;68.14;100579.94;5077523;28;19976;-62
2022/02/15 05:14:09;;;;;;;;;;;;;;;2.38;68.38;100577.03;5078044;28;19927;-62
2022/02/15 05:16:35;;;;;;;;;;;;;;;2.42;68.19;100567.13;5095724;28;20410;-62
2022/02/15 05:19:00;;;;;;;;;;;;;;;2.40;68.87;100580.38;5095742;28;19916;-61
2022/02/15 05:21:26;;;;;;;;;;;;;;;2.41;68.46;100581.22;5095573;28;19919;-62
2022/02/15 05:23:52;;;;;;;;;;;;;;;2.47;68.26;100583.38;5095138;28;19932;-61
2022/02/15 05:26:17;;;;;;;;;;;;;;;2.46;68.36;100585.19;5077260;28;19916;-60
2022/02/15 05:28:47;;;;;;;;;;;;;;;2.46;68.71;100595.69;5095429;28;20398;-62
2022/02/15 05:31:12;;;;;;;;;;;;;;;2.45;68.67;100598.44;5095311;28;19916;-63
2022/02/15 05:33:38;;;;;;;;;;;;;;;2.43;68.72;100608.22;5095222;28;19920;-63
2022/02/15 05:36:04;;;;;;;;;;;;;;;2.43;68.70;100595.94;5094938;28;19916;-61
2022/02/15 05:38:29;;;;;;;;;;;;;;;2.43;69.18;100610.84;5094968;28;19916;-60
2022/02/15 05:40:54;;;;;;;;;;;;;;;2.41;68.21;100618.03;5095066;28;19938;-61
2022/02/15 05:43:20;;;;;;;;;;;;;;;2.44;69.13;100602.84;5094990;28;19932;-61
2022/02/15 05:45:46;;;;;;;;;;;;;;;2.47;69.09;100596.53;5095053;28;19920;-61
2022/02/15 05:48:11;;;;;;;;;;;;;;;2.48;68.59;100588.53;5094881;28;19923;-61
2022/02/15 05:50:49;;;;;;;;;;;;;;;2.51;69.19;100594.50;5076565;28;19955;-61
2022/02/15 05:53:14;;;;;;;;;;;;;;;2.47;68.75;100599.16;5094922;28;19959;-60
2022/02/15 05:55:40;;;;;;;;;;;;;;;2.42;68.43;100606.56;5094851;28;20395;-59
2022/02/15 05:58:05;;;;;;;;;;;;;;;2.46;68.43;100608.84;5094891;28;19916;-61
2022/02/15 06:00:30;;;;;;;;;;;;;;;2.47;68.46;100612.31;5094835;28;19916;-61
2022/02/15 06:02:56;;;;;;;;;;;;;;;2.50;68.61;100604.19;5094495;28;19966;-63
2022/02/15 06:05:21;;;;;;;;;;;;;;;2.48;68.46;100619.25;5076571;28;19960;-61
2022/02/15 06:07:46;;;;;;;;;;;;;;;2.44;68.47;100604.66;5094707;28;19916;-60
2022/02/15 06:10:12;;;;;;;;;;;;;;;2.47;68.67;100622.81;5094081;28;19923;-62
2022/02/15 06:12:37;;;;;;;;;;;;;;;2.46;68.61;100621.97;5094298;28;19916;-63
2022/02/15 06:15:03;;;;;;;;;;;;;;;2.48;67.94;100624.50;5076535;28;19923;-62
2022/02/15 06:17:29;;;;;;;;;;;;;;;2.44;68.50;100631.78;5094384;28;20016;-62
2022/02/15 06:19:55;;;;;;;;;;;;;;;2.44;68.87;100628.31;5092513;28;19916;-62
2022/02/15 06:22:20;;;;;;;;;;;;;;;2.43;68.68;100631.88;5094377;28;20293;-64
2022/02/15 06:24:45;;;;;;;;;;;;;;;2.45;69.41;100641.34;5094583;28;19916;-63
2022/02/15 06:27:11;;;;;;;;;;;;;;;2.48;68.07;100646.34;5094487;28;19916;-64
2022/02/15 06:29:42;;;;;;;;;;;;;;;2.47;68.38;100641.22;5077084;28;19920;-62
2022/02/15 06:32:08;;;;;;;;;;;;;;;2.41;69.35;100649.56;5093776;28;19916;-63
2022/02/15 06:34:33;;;;;;;;;;;;;;;2.44;69.01;100650.16;5076052;28;20293;-62
2022/02/15 06:36:59;;;;;;;;;;;;;;;2.47;68.58;100654.34;5076094;28;19982;-63
2022/02/15 06:39:24;;;;;;;;;;;;;;;2.54;69.04;100665.25;5094229;28;19916;-74
2022/02/15 06:41:50;;;;;;;;;;;;;;;2.47;68.41;100660.44;5093494;28;19942;-63
2022/02/15 06:44:16;;;;;;;;;;;;;;;2.42;68.43;100657.34;5058942;28;19920;-67
2022/02/15 06:46:42;;;;;;;;;;;;;;;2.42;68.28;100652.06;5093790;28;19916;-64
2022/02/15 06:49:07;;;;;;;;;;;;;;;2.39;68.68;100659.34;5094079;28;19916;-63
2022/02/15 06:51:32;;;;;;;;;;;;;;;2.35;68.92;100655.28;5093621;28;19916;-61
2022/02/15 06:53:58;;;;;;;;;;;;;;;2.29;69.30;100658.31;5093674;28;19916;-61
2022/02/15 06:56:23;;;;;;;;;;;;;;;2.24;69.54;100657.84;5093889;28;20299;-58
2022/02/15 06:58:49;;;;;;;;;;;;;;;2.22;70.10;100665.00;5060481;28;19916;-61
2022/02/15 07:01:14;;;;;;;;;;;;;;;2.18;71.02;100673.09;5093633;28;19919;-62
2022/02/15 07:03:40;;;;;;;;;;;;;;;2.12;71.29;100686.69;5086634;28;19920;-62
2022/02/15 07:06:05;;;;;;;;;;;;;;;2.09;72.68;100681.66;5090448;28;19925;-63
2022/02/15 07:08:31;;;;;;;;;;;;;;;2.09;72.71;100684.28;5084130;28;19916;-63
2022/02/15 07:10:57;;;;;;;;;;;;;;;2.08;72.70;100685.22;5073163;28;20371;-63
2022/02/15 07:13:23;;;;;;;;;;;;;;;2.08;72.73;100681.75;5054954;28;19916;-63
2022/02/15 07:15:48;;;;;;;;;;;;;;;2.13;72.30;100680.47;5072974;28;19962;-63
2022/02/15 07:18:14;;;;;;;;;;;;;;;2.20;72.36;100683.50;5054769;28;19916;-61
2022/02/15 07:20:39;;;;;;;;;;;;;;;2.26;72.03;100682.19;5073014;28;19959;-63
2022/02/15 07:23:07;;;;;;;;;;;;;;;2.20;71.57;100682.66;5071955;28;20018;-60
2022/02/15 07:25:33;;;;;;;;;;;;;;;2.17;71.73;100683.72;5055703;28;20391;-61
2022/02/15 07:28:01;;;;;;;;;;;;;;;2.10;71.48;100683.31;5074088;28;19924;-61
2022/02/15 07:30:51;;;;;;;;;;;;;;;2.11;71.70;100689.41;5059390;28;19981;-62
2022/02/15 07:33:16;;;;;;;;;;;;;;;2.15;71.67;100685.63;5072857;28;20365;-64
2022/02/15 07:35:43;;;;;;;;;;;;;;;2.23;71.62;100693.78;5072628;28;19924;-65
2022/02/15 07:38:08;;;;;;;;;;;;;;;2.26;71.38;100684.84;5072254;28;19923;-63
2022/02/15 07:40:33;;;;;;;;;;;;;;;2.25;71.31;100688.41;5072472;28;19916;-64
2022/02/15 07:43:01;;;;;;;;;;;;;;;2.29;71.43;100687.22;5061861;28;20030;-64
2022/02/15 07:45:27;;;;;;;;;;;;;;;2.32;70.84;100689.66;5052915;28;19920;-66
2022/02/15 07:47:53;;;;;;;;;;;;;;;2.33;70.81;100688.72;5031700;28;19917;-66
2022/02/15 07:50:20;;;;;;;;;;;;;;;2.34;70.32;100690.41;5048958;28;19932;-64
2022/02/15 07:52:47;;;;;;;;;;;;;;;2.42;70.64;100685.41;5052274;28;20386;-68
2022/02/15 07:55:13;;;;;;;;;;;;;;;2.45;69.97;100685.19;5052557;28;20306;-63
2022/02/15 07:57:38;;;;;;;;;;;;;;;2.49;69.81;100679.59;5052321;28;19916;-64
2022/02/15 08:00:04;;;;;;;;;;;;;;;2.40;69.31;100653.97;5052405;28;19962;-62
2022/02/15 08:02:30;;;;;;;;;;;;;;;2.58;69.54;100696.47;5032676;28;19975;-66
2022/02/15 08:04:55;;;;;;;;;;;;;;;2.63;70.01;100696.16;5052521;28;19920;-64
2022/02/15 08:07:20;;;;;;;;;;;;;;;2.53;69.11;100700.38;5052114;28;19924;-65
2022/02/15 08:09:46;;;;;;;;;;;;;;;2.50;69.03;100706.69;5051841;28;19923;-64
2022/02/15 08:12:17;;;;;;;;;;;;;;;2.53;69.84;100710.91;5051998;28;19916;-66
2022/02/15 08:14:43;;;;;;;;;;;;;;;2.56;69.54;100711.50;5051566;28;19917;-65
2022/02/15 08:17:08;;;;;;;;;;;;;;;2.53;69.13;100719.63;5051949;28;20028;-64
2022/02/15 08:19:34;;;;;;;;;;;;;;;2.54;69.94;100717.84;5052428;28;19916;-69
2022/02/15 08:21:59;;;;;;;;;;;;;;;2.48;69.28;100713.88;5052523;28;20212;-65
2022/02/15 08:24:28;;;;;;;;;;;;;;;2.47;69.45;100699.03;5018589;28;19924;-64
2022/02/15 08:26:54;;;;;;;;;;;;;;;2.49;69.60;100710.28;5073661;28;20284;-63
2022/02/15 08:29:19;;;;;;;;;;;;;;;2.55;69.49;100706.38;5072191;28;19923;-67
2022/02/15 08:31:45;;;;;;;;;;;;;;;2.55;69.23;100717.72;5064142;28;20410;-67
2022/02/15 08:34:10;;;;;;;;;;;;;;;2.56;69.16;100714.13;5073511;28;19969;-65
2022/02/15 08:36:36;;;;;;;;;;;;;;;2.57;69.63;100718.44;5057119;28;19917;-61
2022/02/15 08:39:02;;;;;;;;;;;;;;;2.60;69.35;100713.00;5076131;28;20314;-64
2022/02/15 08:41:27;;;;;;;;;;;;;;;2.67;69.58;100716.84;5055924;28;19952;-67
2022/02/15 08:43:55;;;;;;;;;;;;;;;2.63;69.17;100723.28;5076628;28;19974;-60
2022/02/15 08:46:20;;;;;;;;;;;;;;;2.58;69.47;100728.00;5076251;28;20018;-64
2022/02/15 08:48:46;;;;;;;;;;;;;;;2.51;69.84;100728.56;5076175;28;20020;-64
2022/02/15 08:51:11;;;;;;;;;;;;;;;2.47;69.70;100718.28;5076372;28;19964;-68
2022/02/15 08:53:38;;;;;;;;;;;;;;;2.40;70.25;100726.75;5057314;28;20291;-65
2022/02/15 08:56:04;;;;;;;;;;;;;;;2.34;70.33;100728.03;5075954;28;19923;-69
2022/02/15 08:58:29;;;;;;;;;;;;;;;2.35;70.91;100724.44;5076037;28;19921;-68
2022/02/15 09:00:59;;;;;;;;;;;;;;;2.30;70.91;100725.69;5075800;28;20310;-64
2022/02/15 09:03:25;;;;;;;;;;;;;;;2.29;71.42;100729.28;5075767;28;19924;-63
2022/02/15 09:05:50;;;;;;;;;;;;;;;2.29;71.96;100726.66;5075610;28;19920;-64
2022/02/15 09:08:15;;;;;;;;;;;;;;;2.28;71.39;100728.44;5075609;28;19916;-64
2022/02/15 09:10:41;;;;;;;;;;;;;;;2.31;72.14;100722.13;5075568;28;20015;-64
2022/02/15 09:13:06;;;;;;;;;;;;;;;2.33;71.81;100725.50;5053966;28;19923;-62
2022/02/15 09:15:32;;;;;;;;;;;;;;;2.33;71.99;100731.59;5073397;28;19923;-65
2022/02/15 09:17:57;;;;;;;;;;;;;;;2.38;72.03;100723.38;5055913;28;19924;-60
2022/02/15 09:20:23;;;;;;;;;;;;;;;2.45;71.88;100735.97;5072621;28;19921;-65
2022/02/15 09:22:48;;;;;;;;;;;;;;;2.41;71.68;100728.41;5094972;28;19926;-65
2022/02/15 09:25:16;;;;;;;;;;;;;;;2.42;71.82;100730.09;5095303;28;19916;-66
2022/02/15 09:27:42;;;;;;;;;;;;;;;2.42;72.26;100730.94;5095530;28;19961;-63
2022/02/15 09:30:07;;;;;;;;;;;;;;;2.39;72.39;100727.69;5078246;28;19916;-62
2022/02/15 09:32:58;;;;;;;;;;;;;;;2.46;72.38;100744.69;5075334;28;19927;-63
2022/02/15 09:35:23;;;;;;;;;;;;;;;2.52;73.30;100746.88;5074551;28;19920;-63
2022/02/15 09:37:49;;;;;;;;;;;;;;;2.51;73.09;100739.94;5074259;28;20023;-64
2022/02/15 09:40:14;;;;;;;;;;;;;;;2.54;73.04;100742.34;5074559;28;20033;-66
2022/02/15 09:42:40;;;;;;;;;;;;;;;2.52;72.33;100741.59;5074693;28;19924;-67
2022/02/15 09:45:09;;;;;;;;;;;;;;;2.54;72.97;100744.13;5073330;28;19978;-66
2022/02/15 09:47:36;;;;;;;;;;;;;;;2.60;72.97;100743.66;5074350;28;19916;-67
2022/02/15 09:50:06;;;;;;;;;;;;;;;2.63;72.29;100754.81;5074442;28;19916;-63
2022/02/15 09:52:31;;;;;;;;;;;;;;;2.65;72.21;100766.06;5074374;28;19920;-64
2022/02/15 09:54:57;;;;;;;;;;;;;;;2.70;72.75;100757.84;5074407;28;19916;-64
2022/02/15 09:57:24;;;;;;;;;;;;;;;2.77;72.53;100762.53;5053640;28;19955;-62
2022/02/15 09:59:50;;;;;;;;;;;;;;;2.81;72.02;100763.13;5036831;28;19917;-64
2022/02/15 10:02:34;;;;;;;;;;;;;;;2.77;71.81;100762.53;5053162;28;19921;-67
2022/02/15 10:05:00;;;;;;;;;;;;;;;2.69;72.50;100753.53;5067916;28;19916;-65
2022/02/15 10:07:26;;;;;;;;;;;;;;;2.52;73.61;100767.06;5074610;28;19939;-67
2022/02/15 10:09:52;;;;;;;;;;;;;;;2.51;73.85;100768.00;5074531;28;19964;-66
2022/02/15 10:12:18;;;;;;;;;;;;;;;2.53;74.25;100772.19;5074593;28;19923;-63
2022/02/15 10:14:45;;;;;;;;;;;;;;;2.55;74.39;100770.28;5074327;28;19923;-63
2022/02/15 10:17:13;;;;;;;;;;;;;;;2.56;75.64;100776.41;5073728;28;19924;-67
2022/02/15 10:19:40;;;;;;;;;;;;;;;2.50;75.04;100782.94;5074014;28;19923;-67
2022/02/15 10:22:07;;;;;;;;;;;;;;;2.53;75.17;100774.81;5074303;28;20013;-62
2022/02/15 10:24:34;;;;;;;;;;;;;;;2.54;75.45;100768.63;5073975;28;19924;-63
2022/02/15 10:27:01;;;;;;;;;;;;;;;2.48;76.10;100766.44;5074080;28;19938;-64
2022/02/15 10:29:28;;;;;;;;;;;;;;;2.40;75.99;100777.50;5074075;28;19916;-63
2022/02/15 10:31:54;;;;;;;;;;;;;;;2.43;76.43;100773.81;5073435;28;19916;-61
2022/02/15 10:34:20;;;;;;;;;;;;;;;2.48;75.63;100758.56;5073678;28;19924;-64
2022/02/15 10:36:52;;;;;;;;;;;;;;;2.57;75.42;100760.50;5073862;28;20018;-65
2022/02/15 10:39:18;;;;;;;;;;;;;;;2.68;75.20;100763.22;5073681;28;19916;-64
2022/02/15 10:41:46;;;;;;;;;;;;;;;2.60;75.22;100755.06;5073400;28;19969;-66
2022/02/15 10:44:11;;;;;;;;;;;;;;;2.64;75.25;100748.63;5073575;28;19974;-71
2022/02/15 10:46:39;;;;;;;;;;;;;;;2.74;75.29;100752.25;5073240;28;19916;-69
2022/02/15 10:49:07;;;;;;;;;;;;;;;2.77;74.39;100749.38;5073888;28;20347;-64
2022/02/15 10:51:33;;;;;;;;;;;;;;;2.78;74.09;100748.44;5073618;28;19959;-66
2022/02/15 10:53:59;;;;;;;;;;;;;;;2.84;74.20;100757.66;5051852;28;19917;-66
2022/02/15 10:56:28;;;;;;;;;;;;;;;2.84;73.66;100751.56;5059409;28;19928;-64
2022/02/15 10:58:53;;;;;;;;;;;;;;;2.87;73.85;100752.16;5064515;28;19923;-65
2022/02/15 11:01:19;;;;;;;;;;;;;;;2.96;73.68;100761.19;5058891;28;19917;-65
2022/02/15 11:03:45;;;;;;;;;;;;;;;2.97;73.31;100768.13;5058893;28;20454;-63
2022/02/15 11:06:11;;;;;;;;;;;;;;;2.96;72.86;100771.72;5062269;28;20045;-65
2022/02/15 11:08:37;;;;;;;;;;;;;;;2.90;73.15;100777.44;5063501;28;20387;-67
2022/02/15 11:11:16;;;;;;;;;;;;;;;2.89;72.63;100767.84;5073008;28;19923;-65
2022/02/15 11:13:41;;;;;;;;;;;;;;;2.74;72.19;100775.06;5073101;28;19963;-61
2022/02/15 11:16:25;;;;;;;;;;;;;;;2.73;72.72;100782.13;5073012;28;19955;-66
2022/02/15 11:18:51;;;;;;;;;;;;;;;2.77;73.13;100778.31;5065469;28;19982;-62
2022/02/15 11:21:27;;;;;;;;;;;;;;;2.82;73.04;100779.75;5051111;28;19921;-67
2022/02/15 11:23:54;;;;;;;;;;;;;;;2.86;72.49;100771.53;5059593;28;20536;-65
2022/02/15 11:26:21;;;;;;;;;;;;;;;2.90;72.22;100778.28;5057566;28;20355;-64
2022/02/15 11:28:48;;;;;;;;;;;;;;;2.97;72.14;100778.66;5062552;28;20325;-65
2022/02/15 11:31:23;;;;;;;;;;;;;;;2.98;71.64;100767.16;5063747;28;20387;-65
2022/02/15 11:33:51;;;;;;;;;;;;;;;2.93;70.71;100764.06;5060568;28;19916;-65
2022/02/15 11:36:23;;;;;;;;;;;;;;;2.77;70.82;100761.69;5063113;28;19920;-64
2022/02/15 11:38:58;;;;;;;;;;;;;;;2.78;71.67;100763.38;5060519;28;20020;-65
2022/02/15 11:41:25;;;;;;;;;;;;;;;2.78;70.60;100756.31;5059248;28;20314;-66
2022/02/15 11:43:56;;;;;;;;;;;;;;;2.82;71.35;100754.28;5077247;28;19972;-66
2022/02/15 11:46:29;;;;;;;;;;;;;;;2.88;71.72;100753.84;5084301;28;20377;-65
2022/02/15 11:48:54;;;;;;;;;;;;;;;2.85;70.22;100750.59;5084536;28;20379;-64
2022/02/15 11:51:23;;;;;;;;;;;;;;;2.84;70.42;100747.13;5088038;28;19988;-67
2022/02/15 11:53:53;;;;;;;;;;;;;;;2.89;70.97;100744.16;5086878;28;19915;-66
2022/02/15 11:56:19;;;;;;;;;;;;;;;2.92;69.54;100743.97;5083944;28;19922;-64
2022/02/15 11:58:49;;;;;;;;;;;;;;;2.87;70.05;100748.69;5085074;28;19916;-65
2022/02/15 12:01:30;;;;;;;;;;;;;;;2.86;69.46;100745.22;5062416;28;19923;-70
2022/02/15 12:03:57;;;;;;;;;;;;;;;2.90;70.08;100741.44;5098411;28;19916;-64
2022/02/15 12:06:34;;;;;;;;;;;;;;;2.99;69.37;100737.28;5081858;28;20363;-64
2022/02/15 12:08:59;;;;;;;;;;;;;;;3.12;68.26;100735.38;5086112;28;20006;-68
2022/02/15 12:11:31;;;;;;;;;;;;;;;3.20;68.97;100738.31;5083502;28;20030;-67
2022/02/15 12:13:57;;;;;;;;;;;;;;;3.27;69.13;100742.16;5083554;28;20005;-69
2022/02/15 12:16:23;;;;;;;;;;;;;;;3.32;69.71;100732.09;5080837;28;19963;-67
2022/02/15 12:18:48;;;;;;;;;;;;;;;3.36;69.27;100723.00;5074713;28;19938;-68
2022/02/15 12:21:14;;;;;;;;;;;;;;;3.38;67.97;100726.34;5076284;28;20427;-66
2022/02/15 12:23:39;;;;;;;;;;;;;;;3.38;67.93;100722.88;5084987;28;19920;-67
2022/02/15 12:26:08;;;;;;;;;;;;;;;3.39;67.61;100722.78;5072529;28;19920;-66
2022/02/15 12:28:33;;;;;;;;;;;;;;;3.37;67.44;100706.25;5084451;28;19976;-67
2022/02/15 12:30:58;;;;;;;;;;;;;;;3.37;66.89;100708.88;5079450;28;19920;-62
2022/02/15 12:33:32;;;;;;;;;;;;;;;3.42;68.77;100700.63;5077735;28;19923;-65
2022/02/15 12:35:57;;;;;;;;;;;;;;;3.50;68.05;100686.91;5080285;28;19915;-64
2022/02/15 12:38:35;;;;;;;;;;;;;;;3.47;67.67;100693.25;5078109;28;20345;-63
2022/02/15 12:41:00;;;;;;;;;;;;;;;3.42;67.22;100680.41;5075813;28;19916;-63
2022/02/15 12:43:30;;;;;;;;;;;;;;;3.46;66.67;100688.06;5063251;28;19921;-66
2022/02/15 12:46:03;;;;;;;;;;;;;;;3.52;67.44;100690.25;5051956;28;19983;-64
2022/02/15 12:48:28;;;;;;;;;;;;;;;3.55;66.84;100682.09;5051698;28;19966;-63
2022/02/15 12:50:54;;;;;;;;;;;;;;;3.60;67.80;100679.94;5061673;28;20009;-64
2022/02/15 12:53:20;;;;;;;;;;;;;;;3.64;66.77;100681.38;5067955;28;20446;-66